Ship Status Report: callsign BDCJ

sailwx.info

Track history (hours):
 
Tides and Currents Weather Stations Pressure Air Temp Water Temp Dewpoint Dewpoint Depression Visibility Wind Speed Wind Dir Waves Ship Positions

Oceanographic research ship ()

Last reported at 2017-Oct-18 04:19 UTC. Time now 2017-Oct-19 16:36 UTC.
Position N 22°27' E 120°17'.

Type: Ship (hazmat cat C). MMSI: 404455160.

Date/timePositionNaut miles runAvg speedWind from/ knotsBaromVisibWave heightAir tempDewpointWater temp
2017-Oct-18 04:19N 22°27' E 120°17'2 0.0
2017-Oct-16 05:17N 22°28' E 120°19'3 9.8
2017-Oct-16 04:59N 22°28' E 120°16'4 9.1
2017-Oct-16 04:30N 22°31' E 120°12'5 9.2
2017-Oct-16 04:00N 22°36' E 120°11'3 5.7
2017-Oct-16 03:31N 22°38' E 120°13'  
2017-Oct-13 11:10N 22°37' E 120°17'2 9.9
2017-Oct-13 10:59N 22°37' E 120°15'4 7.2
2017-Oct-13 10:25N 22°33' E 120°13'4 8.7
2017-Oct-13 10:00N 22°30' E 120°15'  
Track history (hours):
 
Tides and Currents Weather Stations Pressure Air Temp Water Temp Dewpoint Dewpoint Depression Visibility Wind Speed Wind Dir Waves Ship Positions

Oceanographic research ship ()

Last reported at 2017-Oct-18 04:19 UTC. Time now 2017-Oct-19 16:36 UTC.
Position N 22°27' E 120°17'.

Type: Ship (hazmat cat C). MMSI: 404455160.

Date/timePositionNaut miles runAvg speedWind from/ knotsBaromVisibWave heightAir tempDewpointWater temp
2017-Oct-18 04:19N 22°27' E 120°17'2 0.0
2017-Oct-16 05:17N 22°28' E 120°19'3 9.8
2017-Oct-16 04:59N 22°28' E 120°16'4 9.1
2017-Oct-16 04:30N 22°31' E 120°12'5 9.2
2017-Oct-16 04:00N 22°36' E 120°11'3 5.7
2017-Oct-16 03:31N 22°38' E 120°13'  
2017-Oct-13 11:10N 22°37' E 120°17'2 9.9
2017-Oct-13 10:59N 22°37' E 120°15'4 7.2
2017-Oct-13 10:25N 22°33' E 120°13'4 8.7
2017-Oct-13 10:00N 22°30' E 120°15'  

Dump ship's entire track history